Time;durP1;ratioP1;P1;durP2;ratioP2;P2;SDS_P1;SDS_P2;PMS_P1;PMS_P2;Temp;Humidity;BMP_temperature;BMP_pressure;BME280_temperature;BME280_humidity;BME280_pressure;Samples;Min_cycle;Max_cycle;Signal;HPM_P1;HPM_P2
2021/03/02 00:00:21;;;;;;;20.85;14.85;;;5.90;99.90;;;;;;1848691;76;22164;-86
2021/03/02 00:02:49;;;;;;;19.15;14.85;;;6.00;99.90;;;;;;1847272;77;21097;-87
2021/03/02 00:05:17;;;;;;;20.92;15.55;;;6.00;99.90;;;;;;1846917;76;21520;-86
2021/03/02 00:07:44;;;;;;;20.75;15.65;;;5.90;99.90;;;;;;1850211;76;21187;-86
2021/03/02 00:10:13;;;;;;;21.77;16.00;;;5.80;99.90;;;;;;1845630;77;21264;-86
2021/03/02 00:12:42;;;;;;;20.95;16.02;;;5.90;99.90;;;;;;1846364;76;21095;-85
2021/03/02 00:15:12;;;;;;;20.37;15.70;;;5.80;99.90;;;;;;1846186;76;21077;-87
2021/03/02 00:17:55;;;;;;;20.40;15.15;;;5.80;99.90;;;;;;1852682;76;21117;-87
2021/03/02 00:20:24;;;;;;;20.10;15.15;;;5.90;99.90;;;;;;1842015;76;21042;-86
2021/03/02 00:23:03;;;;;;;21.17;15.25;;;5.80;99.90;;;;;;1845109;76;21109;-86
2021/03/02 00:25:39;;;;;;;20.75;15.20;;;5.80;99.90;;;;;;1844289;76;21144;-86
2021/03/02 00:28:09;;;;;;;21.00;16.27;;;5.80;99.90;;;;;;1853544;75;21074;-83
2021/03/02 00:30:38;;;;;;;18.80;15.20;;;5.80;99.90;;;;;;1850193;76;21146;-84
2021/03/02 00:33:07;;;;;;;19.10;15.23;;;5.90;99.90;;;;;;1848858;76;21066;-82
2021/03/02 00:35:35;;;;;;;19.30;15.08;;;5.90;99.90;;;;;;1842591;76;21125;-83
2021/03/02 00:38:02;;;;;;;18.75;14.73;;;5.80;99.90;;;;;;1849125;75;21563;-83
2021/03/02 00:40:30;;;;;;;19.92;15.65;;;5.80;99.90;;;;;;1845643;77;21679;-84
2021/03/02 00:42:57;;;;;;;19.80;15.60;;;5.70;99.90;;;;;;1842566;76;21106;-83
2021/03/02 00:45:25;;;;;;;20.45;15.48;;;5.70;99.90;;;;;;1847559;76;21114;-83
2021/03/02 00:47:53;;;;;;;19.67;16.05;;;5.70;99.90;;;;;;1850938;76;21126;-83
2021/03/02 00:50:23;;;;;;;18.67;14.55;;;5.70;99.90;;;;;;1846326;77;21094;-83
2021/03/02 00:52:51;;;;;;;20.45;15.58;;;5.70;99.90;;;;;;1849888;76;21178;-84
2021/03/02 00:55:19;;;;;;;21.05;15.50;;;5.70;99.90;;;;;;1846706;76;21096;-84
2021/03/02 00:57:46;;;;;;;17.73;14.55;;;5.60;99.90;;;;;;1845883;75;21112;-83
2021/03/02 01:00:14;;;;;;;19.57;15.68;;;5.60;99.90;;;;;;1846453;76;21422;-82
2021/03/02 01:02:42;;;;;;;20.48;15.58;;;5.60;99.90;;;;;;1844224;77;21473;-86
2021/03/02 01:05:10;;;;;;;18.50;15.08;;;5.70;99.90;;;;;;1847808;76;21179;-86
2021/03/02 01:07:38;;;;;;;19.17;15.50;;;5.70;99.90;;;;;;1841155;76;21100;-84
2021/03/02 01:10:08;;;;;;;18.98;15.13;;;5.70;99.90;;;;;;1848448;76;21082;-85
2021/03/02 01:12:35;;;;;;;19.75;15.88;;;5.70;99.90;;;;;;1848180;76;21078;-84
2021/03/02 01:15:05;;;;;;;17.87;14.98;;;5.60;99.90;;;;;;1841417;76;22182;-83
2021/03/02 01:17:32;;;;;;;18.35;15.35;;;5.50;99.90;;;;;;1849786;75;21070;-87
2021/03/02 01:20:00;;;;;;;21.07;15.75;;;5.40;99.90;;;;;;1848665;75;21673;-87
2021/03/02 01:22:27;;;;;;;20.77;16.12;;;5.40;99.90;;;;;;1848441;75;21139;-83
2021/03/02 01:24:55;;;;;;;25.12;16.15;;;5.50;99.90;;;;;;1848221;76;21110;-89
2021/03/02 01:27:22;;;;;;;20.17;16.27;;;5.50;99.90;;;;;;1853405;75;21117;-88
2021/03/02 01:29:50;;;;;;;21.97;15.95;;;5.50;99.90;;;;;;1850984;75;21233;-87
2021/03/02 01:32:17;;;;;;;18.80;14.13;;;5.60;99.90;;;;;;1844234;77;21576;-88
2021/03/02 01:34:45;;;;;;;17.57;13.78;;;5.60;99.90;;;;;;1849228;77;21124;-88
2021/03/02 01:37:12;;;;;;;18.90;14.93;;;5.70;99.90;;;;;;1840793;75;21086;-87
2021/03/02 01:39:40;;;;;;;17.50;13.72;;;5.60;99.90;;;;;;1849037;77;21113;-87
2021/03/02 01:42:07;;;;;;;17.30;12.98;;;5.60;99.90;;;;;;1839712;77;21219;-88
2021/03/02 01:44:35;;;;;;;19.00;14.28;;;5.60;99.90;;;;;;1847002;76;21145;-85
2021/03/02 01:47:02;;;;;;;16.48;12.88;;;5.60;99.90;;;;;;1849313;76;21340;-85
2021/03/02 01:49:30;;;;;;;19.02;14.33;;;5.60;99.90;;;;;;1846048;77;21069;-84
2021/03/02 01:51:57;;;;;;;16.42;13.35;;;5.60;99.90;;;;;;1840661;76;21141;-85
2021/03/02 01:54:25;;;;;;;16.48;13.43;;;5.60;99.90;;;;;;1852162;76;21621;-91
2021/03/02 01:56:52;;;;;;;17.62;13.10;;;5.60;99.90;;;;;;1847737;75;21106;-85
2021/03/02 01:59:20;;;;;;;17.37;13.18;;;5.50;99.90;;;;;;1842344;76;21054;-85
2021/03/02 02:01:49;;;;;;;15.40;13.13;;;5.50;99.90;;;;;;1848184;74;21136;-83
2021/03/02 02:04:20;;;;;;;15.20;12.15;;;5.50;99.90;;;;;;1851868;74;21147;-83
2021/03/02 02:06:51;;;;;;;15.32;12.10;;;5.40;99.90;;;;;;1849170;73;21082;-82
2021/03/02 02:09:30;;;;;;;14.68;12.23;;;5.40;99.90;;;;;;1857473;73;21041;-85
2021/03/02 02:12:20;;;;;;;17.37;12.13;;;5.40;99.90;;;;;;1849952;76;21624;-86
2021/03/02 02:15:06;;;;;;;13.18;11.08;;;5.40;99.90;;;;;;1847896;75;21191;-86
2021/03/02 02:17:48;;;;;;;12.95;10.70;;;5.30;99.90;;;;;;1845915;76;21168;-85
2021/03/02 02:20:19;;;;;;;13.70;10.95;;;5.30;99.90;;;;;;1853591;76;21098;-85
2021/03/02 02:22:52;;;;;;;13.78;11.68;;;5.30;99.90;;;;;;1817923;77;21142;-85
2021/03/02 02:25:39;;;;;;;16.15;12.70;;;5.30;99.90;;;;;;1843710;76;21171;-84
2021/03/02 02:28:10;;;;;;;13.95;11.22;;;5.30;99.90;;;;;;1843736;77;21119;-83
2021/03/02 02:30:40;;;;;;;14.03;11.22;;;5.30;99.90;;;;;;1853005;76;21204;-83
2021/03/02 02:33:10;;;;;;;13.68;11.35;;;5.30;99.90;;;;;;1846786;76;21109;-84
2021/03/02 02:35:40;;;;;;;15.25;12.10;;;5.30;99.90;;;;;;1853048;76;21145;-84
2021/03/02 02:38:10;;;;;;;16.60;12.80;;;5.30;99.90;;;;;;1844929;76;21645;-83
2021/03/02 02:40:39;;;;;;;14.40;12.25;;;5.30;99.90;;;;;;1837871;77;21262;-83
2021/03/02 02:43:08;;;;;;;13.90;11.85;;;5.30;99.90;;;;;;1850929;76;21108;-82
2021/03/02 02:45:36;;;;;;;13.32;11.33;;;5.30;99.90;;;;;;1844733;77;21089;-85
2021/03/02 02:48:05;;;;;;;13.38;11.20;;;5.30;99.90;;;;;;1834532;77;21108;-83
2021/03/02 02:50:33;;;;;;;15.93;11.75;;;5.30;99.90;;;;;;1842045;76;21192;-84
2021/03/02 02:53:01;;;;;;;15.30;12.80;;;5.30;99.90;;;;;;1846936;75;21136;-86
2021/03/02 02:55:38;;;;;;;15.20;12.20;;;5.30;99.90;;;;;;1849816;76;21162;-86
2021/03/02 02:58:07;;;;;;;15.32;12.13;;;5.20;99.90;;;;;;1850093;76;21613;-85
2021/03/02 03:00:37;;;;;;;15.90;12.30;;;5.20;99.90;;;;;;1842123;76;21199;-85
2021/03/02 03:03:07;;;;;;;13.62;11.50;;;5.10;99.90;;;;;;1847447;76;21117;-85
2021/03/02 03:05:38;;;;;;;13.98;11.33;;;5.10;99.90;;;;;;1839886;76;21018;-85
2021/03/02 03:08:11;;;;;;;14.85;11.43;;;5.10;99.90;;;;;;1845760;76;21114;-85
2021/03/02 03:10:39;;;;;;;12.80;10.50;;;5.10;99.90;;;;;;1839576;75;21215;-82
2021/03/02 03:13:09;;;;;;;12.75;10.00;;;5.10;99.90;;;;;;1847532;77;21137;-83
2021/03/02 03:15:37;;;;;;;13.65;10.43;;;5.00;99.90;;;;;;1838571;76;21172;-85
2021/03/02 03:18:07;;;;;;;11.90;9.95;;;5.00;99.90;;;;;;1842035;76;21144;-85
2021/03/02 03:20:35;;;;;;;12.28;9.90;;;5.10;99.90;;;;;;1846766;75;21113;-86
2021/03/02 03:23:05;;;;;;;11.12;9.50;;;5.10;99.90;;;;;;1811853;76;21116;-83
2021/03/02 03:25:34;;;;;;;12.47;10.23;;;5.10;99.90;;;;;;1840927;77;21094;-85
2021/03/02 03:28:05;;;;;;;12.63;10.72;;;5.10;99.90;;;;;;1844199;76;21636;-86
2021/03/02 03:30:34;;;;;;;13.75;10.90;;;5.10;99.90;;;;;;1849099;76;21226;-87
2021/03/02 03:33:05;;;;;;;15.48;11.05;;;5.10;99.90;;;;;;1844517;75;21567;-85
2021/03/02 03:35:34;;;;;;;14.95;11.03;;;5.10;99.90;;;;;;1846357;76;21528;-85
2021/03/02 03:38:01;;;;;;;13.80;11.12;;;5.00;99.90;;;;;;1838306;77;21353;-84
2021/03/02 03:40:29;;;;;;;14.50;10.78;;;5.00;99.90;;;;;;1837744;75;21124;-86
2021/03/02 03:42:56;;;;;;;13.45;11.18;;;5.00;99.90;;;;;;1852252;76;21196;-85
2021/03/02 03:45:24;;;;;;;13.98;11.50;;;4.90;99.90;;;;;;1843461;76;21237;-85
2021/03/02 03:47:51;;;;;;;14.07;11.12;;;4.90;99.90;;;;;;1844104;76;21066;-85
2021/03/02 03:50:19;;;;;;;15.10;11.85;;;4.90;99.90;;;;;;1852344;75;21068;-85
2021/03/02 03:52:50;;;;;;;15.60;11.33;;;4.90;99.90;;;;;;1846388;76;21086;-85
2021/03/02 03:55:19;;;;;;;15.10;11.35;;;4.90;99.90;;;;;;1838561;77;21168;-85
2021/03/02 03:57:47;;;;;;;13.72;11.00;;;4.90;99.90;;;;;;1849703;76;21660;-83
2021/03/02 04:00:16;;;;;;;14.58;11.03;;;5.00;99.90;;;;;;1842231;75;21140;-86
2021/03/02 04:02:44;;;;;;;14.07;10.95;;;4.90;99.90;;;;;;1846742;76;21095;-85
2021/03/02 04:05:13;;;;;;;14.87;11.70;;;4.90;99.90;;;;;;1839232;76;21130;-84
2021/03/02 04:07:42;;;;;;;16.37;11.55;;;4.90;99.90;;;;;;1847274;76;21371;-85
2021/03/02 04:10:11;;;;;;;16.07;12.25;;;4.90;99.90;;;;;;1848666;75;21064;-84
2021/03/02 04:12:40;;;;;;;16.27;11.93;;;4.90;99.90;;;;;;1844637;76;22074;-85
2021/03/02 04:15:13;;;;;;;15.85;12.20;;;4.80;99.90;;;;;;1847049;77;21066;-83
2021/03/02 04:17:42;;;;;;;15.80;11.95;;;4.70;99.90;;;;;;1837746;76;21079;-83
2021/03/02 04:20:10;;;;;;;16.10;12.70;;;4.80;99.90;;;;;;1847150;76;21177;-84
2021/03/02 04:22:38;;;;;;;15.65;12.58;;;4.70;99.90;;;;;;1847330;76;21120;-84
2021/03/02 04:25:06;;;;;;;17.87;11.83;;;4.70;99.90;;;;;;1842488;76;21096;-84
2021/03/02 04:27:33;;;;;;;16.10;11.83;;;4.70;99.90;;;;;;1846418;76;21160;-84
2021/03/02 04:30:01;;;;;;;18.23;12.40;;;4.70;99.90;;;;;;1846000;76;21246;-84
2021/03/02 04:32:28;;;;;;;15.68;12.50;;;4.70;99.90;;;;;;1844043;76;21684;-85
2021/03/02 04:34:56;;;;;;;15.30;12.43;;;4.70;99.90;;;;;;1845644;76;21097;-84
2021/03/02 04:37:23;;;;;;;16.25;12.60;;;4.70;99.90;;;;;;1843525;76;21101;-85
2021/03/02 04:39:51;;;;;;;17.15;13.62;;;4.80;99.90;;;;;;1841494;75;22118;-84
2021/03/02 04:42:19;;;;;;;17.70;13.62;;;4.70;99.90;;;;;;1845958;77;21132;-84
2021/03/02 04:44:46;;;;;;;17.32;13.58;;;4.60;99.90;;;;;;1848131;77;21668;-84
2021/03/02 04:47:14;;;;;;;19.57;14.10;;;4.60;99.90;;;;;;1849576;76;21034;-86
2021/03/02 04:49:41;;;;;;;16.87;12.98;;;4.60;99.90;;;;;;1837774;77;21117;-84
2021/03/02 04:52:09;;;;;;;17.48;13.40;;;4.70;99.90;;;;;;1849681;76;21192;-85
2021/03/02 04:54:36;;;;;;;18.02;13.53;;;4.60;99.90;;;;;;1848045;76;21156;-82
2021/03/02 04:57:04;;;;;;;17.70;13.15;;;4.60;99.90;;;;;;1849739;76;21136;-87
2021/03/02 04:59:31;;;;;;;16.48;12.80;;;4.60;99.90;;;;;;1845696;76;21129;-87
2021/03/02 05:01:59;;;;;;;18.15;13.43;;;4.60;99.90;;;;;;1852152;76;21196;-87
2021/03/02 05:04:26;;;;;;;18.48;13.90;;;4.60;99.90;;;;;;1849610;75;21110;-87
2021/03/02 05:06:54;;;;;;;16.95;13.15;;;4.60;99.90;;;;;;1844832;77;21677;-86
2021/03/02 05:09:21;;;;;;;17.92;13.15;;;4.60;99.90;;;;;;1851738;76;21588;-81
2021/03/02 05:11:49;;;;;;;18.82;13.30;;;4.60;99.90;;;;;;1849692;77;21607;-81
2021/03/02 05:14:16;;;;;;;18.00;13.48;;;4.60;99.90;;;;;;1850913;75;21176;-81
2021/03/02 05:16:44;;;;;;;15.95;12.80;;;4.50;99.90;;;;;;1851260;76;21057;-81
2021/03/02 05:19:11;;;;;;;17.82;12.53;;;4.50;99.90;;;;;;1848433;76;21083;-82
2021/03/02 05:21:39;;;;;;;15.72;12.18;;;4.50;99.90;;;;;;1847570;76;21216;-81
2021/03/02 05:24:07;;;;;;;16.50;12.30;;;4.40;99.90;;;;;;1849103;75;21140;-81
2021/03/02 05:26:34;;;;;;;16.97;11.75;;;4.50;99.90;;;;;;1844085;77;21559;-81
2021/03/02 05:29:02;;;;;;;16.77;12.20;;;4.50;99.90;;;;;;1845865;76;21066;-82
2021/03/02 05:31:29;;;;;;;18.17;12.28;;;4.50;99.90;;;;;;1850388;76;21164;-83
2021/03/02 05:33:57;;;;;;;15.38;11.80;;;4.50;99.90;;;;;;1841486;76;21101;-82
2021/03/02 05:36:24;;;;;;;15.50;12.23;;;4.50;99.90;;;;;;1852610;76;21128;-82
2021/03/02 05:38:52;;;;;;;15.80;12.20;;;4.50;99.90;;;;;;1851065;76;21040;-81
2021/03/02 05:41:20;;;;;;;15.15;11.93;;;4.50;99.90;;;;;;1840831;77;21246;-80
2021/03/02 05:43:47;;;;;;;17.70;11.95;;;4.50;99.90;;;;;;1849975;76;21101;-85
2021/03/02 05:46:15;;;;;;;16.87;12.05;;;4.50;99.90;;;;;;1845013;77;22549;-82
2021/03/02 05:48:43;;;;;;;16.32;11.68;;;4.40;99.90;;;;;;1849760;76;21124;-81
2021/03/02 05:51:11;;;;;;;13.43;10.68;;;4.40;99.90;;;;;;1848942;76;21155;-81
2021/03/02 05:53:39;;;;;;;14.45;11.05;;;4.40;99.90;;;;;;1844482;75;21138;-80
2021/03/02 05:56:10;;;;;;;17.17;12.05;;;4.40;99.90;;;;;;1844968;76;21058;-74
2021/03/02 05:58:37;;;;;;;15.45;11.63;;;4.40;99.90;;;;;;1846106;76;21450;-74
2021/03/02 06:01:06;;;;;;;17.02;12.30;;;4.40;99.90;;;;;;1845256;76;21117;-74
2021/03/02 06:03:37;;;;;;;17.23;12.10;;;4.30;99.90;;;;;;1847500;76;21704;-74
2021/03/02 06:06:05;;;;;;;18.32;13.80;;;4.40;99.90;;;;;;1846800;76;21154;-74
2021/03/02 06:08:33;;;;;;;17.52;12.95;;;4.40;99.90;;;;;;1845349;76;21108;-74
2021/03/02 06:11:20;;;;;;;16.97;12.68;;;4.40;99.90;;;;;;1845813;76;21113;-75
2021/03/02 06:13:48;;;;;;;19.82;14.35;;;4.40;99.90;;;;;;1843725;75;21686;-75
2021/03/02 06:16:15;;;;;;;19.15;13.50;;;4.40;99.90;;;;;;1845891;76;21717;-77
2021/03/02 06:18:54;;;;;;;19.00;12.90;;;4.40;99.90;;;;;;1843811;76;21204;-78
2021/03/02 06:21:22;;;;;;;19.07;13.40;;;4.40;99.90;;;;;;1842670;76;21453;-79
2021/03/02 06:23:54;;;;;;;18.92;13.70;;;4.40;99.90;;;;;;1844331;76;21093;-76
2021/03/02 06:26:24;;;;;;;20.62;14.93;;;4.40;99.90;;;;;;1847759;76;21235;-74
2021/03/02 06:28:54;;;;;;;21.60;14.30;;;4.40;99.90;;;;;;1851114;75;21591;-73
2021/03/02 06:31:36;;;;;;;17.62;12.03;;;4.40;99.90;;;;;;1854403;76;21181;-77
2021/03/02 06:34:17;;;;;;;;;;;4.40;99.90;;;;;;1850180;76;21090;-78
2021/03/02 06:36:59;;;;;;;13.05;9.98;;;4.40;99.90;;;;;;1848211;76;20309;-73
2021/03/02 06:39:32;;;;;;;14.20;10.85;;;4.40;99.90;;;;;;1836294;76;21116;-76
2021/03/02 06:42:14;;;;;;;13.00;10.58;;;4.30;99.90;;;;;;1849420;75;21147;-76
2021/03/02 06:44:46;;;;;;;14.47;11.35;;;4.30;99.90;;;;;;1845505;76;21113;-76
2021/03/02 06:47:36;;;;;;;13.50;10.53;;;4.30;99.90;;;;;;1850129;76;21117;-73
2021/03/02 06:50:13;;;;;;;18.73;10.72;;;4.30;99.90;;;;;;1850810;75;21335;-76
2021/03/02 06:52:43;;;;;;;13.85;10.80;;;4.30;99.90;;;;;;1846480;76;21591;-78
2021/03/02 06:55:19;;;;;;;18.10;10.98;;;4.30;99.90;;;;;;1841436;75;21171;-76
2021/03/02 06:57:49;;;;;;;15.60;11.88;;;4.30;99.90;;;;;;1841245;77;21061;-77
2021/03/02 07:00:19;;;;;;;15.75;11.20;;;4.30;99.90;;;;;;1849460;75;21087;-76
2021/03/02 07:02:47;;;;;;;14.70;11.40;;;4.30;99.90;;;;;;1833809;77;21654;-76
2021/03/02 07:05:18;;;;;;;15.58;11.50;;;4.50;99.90;;;;;;1850264;73;21556;-78
2021/03/02 07:07:54;;;;;;;15.80;12.20;;;4.50;99.90;;;;;;1918574;73;21378;-79
2021/03/02 07:10:17;;;;;;;15.85;12.25;;;4.60;99.90;;;;;;1901899;73;21133;-77
2021/03/02 07:12:45;;;;;;;17.98;12.63;;;4.60;99.90;;;;;;1906394;72;21182;-79
2021/03/02 07:15:20;;;;;;;22.00;13.62;;;4.70;99.90;;;;;;1897206;73;21165;-79
2021/03/02 07:17:49;;;;;;;19.92;13.03;;;4.80;99.90;;;;;;1880371;74;21133;-77
2021/03/02 07:20:18;;;;;;;21.23;14.40;;;4.80;99.90;;;;;;1881216;74;21090;-78
2021/03/02 07:22:50;;;;;;;18.55;14.33;;;4.90;99.90;;;;;;1884532;74;21123;-79
2021/03/02 07:25:23;;;;;;;21.27;14.35;;;5.00;99.90;;;;;;1878916;74;21090;-81
2021/03/02 07:27:56;;;;;;;20.12;14.90;;;5.10;99.90;;;;;;1879507;74;21967;-80
2021/03/02 07:30:24;;;;;;;22.50;15.90;;;5.20;99.90;;;;;;1881358;74;21171;-82
2021/03/02 07:32:52;;;;;;;25.10;15.88;;;5.30;99.90;;;;;;1879565;74;21152;-80
2021/03/02 07:35:22;;;;;;;22.55;16.07;;;5.40;99.90;;;;;;1879596;74;21172;-82
2021/03/02 07:37:50;;;;;;;26.05;16.35;;;5.50;99.90;;;;;;1874273;74;21105;-81
2021/03/02 07:40:20;;;;;;;26.30;17.82;;;5.60;99.90;;;;;;1874091;74;21070;-81
2021/03/02 07:42:47;;;;;;;28.38;18.05;;;5.70;99.90;;;;;;1878101;74;21089;-77
2021/03/02 07:45:19;;;;;;;26.35;18.10;;;5.70;99.90;;;;;;1872619;74;21658;-76
2021/03/02 07:47:53;;;;;;;25.62;19.07;;;5.80;99.90;;;;;;1882476;73;21054;-81
2021/03/02 07:50:26;;;;;;;29.02;18.48;;;5.90;99.90;;;;;;1869786;74;21183;-83
2021/03/02 07:53:19;;;;;;;30.25;20.43;;;6.00;99.90;;;;;;1876294;74;21773;-81
2021/03/02 07:55:48;;;;;;;29.35;20.43;;;6.10;99.90;;;;;;1873904;74;21140;-81
2021/03/02 07:58:21;;;;;;;31.30;21.37;;;6.20;99.90;;;;;;1876836;74;21646;-82
2021/03/02 08:00:50;;;;;;;31.02;20.85;;;6.30;99.90;;;;;;1876940;74;21121;-82
2021/03/02 08:03:25;;;;;;;34.75;21.12;;;6.40;99.90;;;;;;1870606;74;21105;-82
2021/03/02 08:05:54;;;;;;;31.07;21.12;;;6.50;99.90;;;;;;1880672;74;21099;-81
2021/03/02 08:08:28;;;;;;;34.65;23.62;;;6.50;99.90;;;;;;1885389;74;21107;-80
2021/03/02 08:11:01;;;;;;;30.57;21.23;;;6.50;99.90;;;;;;1882010;74;21567;-81
2021/03/02 08:13:40;;;;;;;33.45;22.48;;;6.60;99.90;;;;;;1868899;74;21171;-82
2021/03/02 08:16:09;;;;;;;33.38;22.17;;;6.70;99.90;;;;;;1878738;74;21663;-80
2021/03/02 08:18:39;;;;;;;31.35;22.32;;;6.80;99.90;;;;;;1880799;74;21121;-81
2021/03/02 08:21:20;;;;;;;36.17;22.52;;;6.80;99.90;;;;;;1876318;74;21105;-80
2021/03/02 08:23:59;;;;;;;33.00;23.18;;;6.80;99.90;;;;;;1880975;74;21036;-79
2021/03/02 08:26:35;;;;;;;35.10;23.22;;;7.00;99.90;;;;;;1877654;74;21623;-79
2021/03/02 08:29:10;;;;;;;32.88;23.22;;;7.00;99.90;;;;;;1876949;74;22265;-81
2021/03/02 08:31:41;;;;;;;32.33;22.42;;;7.00;99.90;;;;;;1882367;74;21039;-81
2021/03/02 08:34:11;;;;;;;35.17;22.98;;;7.10;99.90;;;;;;1876276;74;21207;-82
2021/03/02 08:36:39;;;;;;;33.33;23.07;;;7.30;99.90;;;;;;1879335;74;21152;-82
2021/03/02 08:39:12;;;;;;;34.60;24.12;;;7.40;99.90;;;;;;1879585;74;21668;-81
2021/03/02 08:41:42;;;;;;;33.38;23.18;;;7.50;99.90;;;;;;1875072;74;21082;-82
2021/03/02 08:44:24;;;;;;;34.35;23.57;;;7.60;99.90;;;;;;1877116;74;21158;-81
2021/03/02 08:46:54;;;;;;;34.67;23.95;;;7.80;99.90;;;;;;1873907;74;21059;-82
2021/03/02 08:49:23;;;;;;;33.67;23.30;;;8.00;99.90;;;;;;1881942;74;21563;-81
2021/03/02 08:51:59;;;;;;;29.70;21.97;;;8.00;99.90;;;;;;1876546;74;21113;-81
2021/03/02 08:54:26;;;;;;;31.65;22.22;;;8.00;99.90;;;;;;1873322;74;21662;-81
2021/03/02 08:57:05;;;;;;;32.65;23.45;;;8.00;99.90;;;;;;1878408;73;21147;-81
2021/03/02 08:59:34;;;;;;;31.87;21.57;;;8.00;99.90;;;;;;1879699;74;21079;-82
2021/03/02 09:02:01;;;;;;;36.60;24.63;;;8.10;99.90;;;;;;1872795;74;22003;-79
2021/03/02 09:04:33;;;;;;;31.02;22.82;;;8.10;99.90;;;;;;1877005;73;21550;-81
2021/03/02 09:07:00;;;;;;;43.92;21.68;;;8.10;99.90;;;;;;1880122;74;21700;-81
2021/03/02 09:09:29;;;;;;;34.80;22.42;;;8.00;99.90;;;;;;1874505;74;21089;-82
2021/03/02 09:11:59;;;;;;;30.85;21.82;;;8.10;99.90;;;;;;1877543;74;21113;-81
2021/03/02 09:14:33;;;;;;;33.33;21.87;;;8.30;99.90;;;;;;1877857;74;21392;-81
2021/03/02 09:17:06;;;;;;;31.95;22.75;;;8.30;99.90;;;;;;1876463;74;21179;-80
2021/03/02 09:19:35;;;;;;;36.03;23.02;;;8.40;99.90;;;;;;1872458;74;21618;-79
2021/03/02 09:22:14;;;;;;;30.97;22.17;;;8.60;99.90;;;;;;1878672;74;21073;-80
2021/03/02 09:24:56;;;;;;;30.15;21.33;;;8.80;99.90;;;;;;1878753;74;21093;-80
2021/03/02 09:27:39;;;;;;;32.93;22.27;;;9.00;99.90;;;;;;1875360;74;21121;-79
2021/03/02 09:30:07;;;;;;;32.00;22.17;;;9.20;99.90;;;;;;1878384;74;21094;-81
2021/03/02 09:32:35;;;;;;;32.40;22.55;;;9.20;99.90;;;;;;1877059;74;21105;-79
2021/03/02 09:35:07;;;;;;;31.12;22.10;;;9.20;99.90;;;;;;1880753;74;22386;-79
2021/03/02 09:37:36;;;;;;;32.67;21.02;;;9.50;99.90;;;;;;1881304;73;21113;-79
2021/03/02 09:40:09;;;;;;;29.92;21.10;;;9.60;99.90;;;;;;1870867;74;21087;-80
2021/03/02 09:42:39;;;;;;;30.30;20.88;;;9.80;99.90;;;;;;1877623;74;21122;-80
2021/03/02 09:45:16;;;;;;;28.30;20.57;;;10.10;99.90;;;;;;1872898;74;21229;-80
2021/03/02 09:47:45;;;;;;;32.90;21.93;;;10.40;99.90;;;;;;1877641;74;21168;-79
2021/03/02 09:50:14;;;;;;;33.50;22.50;;;10.50;99.90;;;;;;1874944;74;21050;-72
2021/03/02 09:52:46;;;;;;;29.50;20.82;;;10.60;99.90;;;;;;1878633;75;21163;-79
2021/03/02 09:55:17;;;;;;;31.07;21.70;;;10.70;99.90;;;;;;1876612;74;21257;-75
2021/03/02 09:58:23;;;;;;;26.48;19.57;;;10.70;99.90;;;;;;1872194;74;21555;-77
2021/03/02 10:00:49;;;;;;;26.80;19.73;;;10.80;99.90;;;;;;1873810;73;21705;-79
2021/03/02 10:03:22;;;;;;;24.40;18.98;;;10.90;99.90;;;;;;1877644;74;21613;-78
2021/03/02 10:05:55;;;;;;;25.95;19.32;;;11.20;99.90;;;;;;1871497;74;21133;-78
2021/03/02 10:08:40;;;;;;;26.07;19.37;;;11.50;99.70;;;;;;1879667;74;21185;-79
2021/03/02 10:11:17;;;;;;;24.87;19.35;;;11.60;99.80;;;;;;1875564;74;21189;-78
2021/03/02 10:13:53;;;;;;;30.12;19.82;;;11.70;98.80;;;;;;1878830;74;21445;-78
2021/03/02 10:16:37;;;;;;;27.00;21.05;;;11.70;98.60;;;;;;1876307;74;21453;-78
2021/03/02 10:19:22;;;;;;;31.37;21.68;;;11.70;97.20;;;;;;1880597;74;21591;-78
2021/03/02 10:21:58;;;;;;;32.42;20.70;;;11.40;97.70;;;;;;1877136;74;21208;-79
2021/03/02 10:24:31;;;;;;;25.15;20.35;;;11.50;97.70;;;;;;1874273;74;21197;-79
2021/03/02 10:27:00;;;;;;;24.57;19.60;;;11.60;97.70;;;;;;1883378;74;21089;-78
2021/03/02 10:29:29;;;;;;;25.82;19.75;;;11.90;97.70;;;;;;1881133;74;21205;-78
2021/03/02 10:31:56;;;;;;;22.05;17.45;;;12.00;97.30;;;;;;1880332;74;21137;-79
2021/03/02 10:34:24;;;;;;;25.62;18.48;;;12.10;96.70;;;;;;1874862;74;21089;-78
2021/03/02 10:36:55;;;;;;;23.45;18.10;;;12.30;96.30;;;;;;1881353;74;21615;-78
2021/03/02 10:39:23;;;;;;;23.00;17.67;;;12.30;96.50;;;;;;1873736;74;21111;-78
2021/03/02 10:41:50;;;;;;;19.20;15.80;;;12.30;96.60;;;;;;1870773;74;21105;-77
2021/03/02 10:44:18;;;;;;;20.40;15.38;;;12.50;95.60;;;;;;1878467;74;22201;-79
2021/03/02 10:46:45;;;;;;;23.80;17.35;;;12.50;96.50;;;;;;1886179;74;21651;-79
2021/03/02 10:49:13;;;;;;;19.50;16.23;;;12.60;95.80;;;;;;1874397;74;21111;-77
2021/03/02 10:51:42;;;;;;;20.48;16.35;;;12.80;95.40;;;;;;1873524;74;21117;-78
2021/03/02 10:54:11;;;;;;;21.93;15.15;;;12.90;94.80;;;;;;1881886;74;21106;-79
2021/03/02 10:56:39;;;;;;;17.87;14.75;;;13.00;94.60;;;;;;1873495;74;21064;-79
2021/03/02 10:59:06;;;;;;;17.52;14.47;;;13.10;94.80;;;;;;1881002;74;21117;-79
2021/03/02 11:01:34;;;;;;;16.20;13.38;;;13.20;94.40;;;;;;1872180;74;21070;-79
2021/03/02 11:04:02;;;;;;;15.65;13.32;;;13.30;94.00;;;;;;1875463;74;21189;-80
2021/03/02 11:06:31;;;;;;;15.60;13.43;;;13.60;94.80;;;;;;1879643;74;21149;-79
2021/03/02 11:09:00;;;;;;;14.58;12.75;;;13.70;94.60;;;;;;1881030;73;21174;-79
2021/03/02 11:11:28;;;;;;;14.98;12.53;;;14.10;93.60;;;;;;1875688;74;21121;-80
2021/03/02 11:13:55;;;;;;;18.15;12.93;;;14.40;92.60;;;;;;1878776;74;21151;-80
2021/03/02 11:16:23;;;;;;;14.38;11.57;;;14.60;92.50;;;;;;1874048;74;21220;-80
2021/03/02 11:18:50;;;;;;;13.20;11.22;;;14.60;91.70;;;;;;1884881;74;21101;-81
2021/03/02 11:21:18;;;;;;;14.45;11.63;;;14.70;91.40;;;;;;1880321;74;21156;-80
2021/03/02 11:23:45;;;;;;;13.32;10.95;;;14.90;92.20;;;;;;1881876;74;21066;-80
2021/03/02 11:26:13;;;;;;;13.15;11.12;;;15.30;91.20;;;;;;1878024;74;21206;-80
2021/03/02 11:28:40;;;;;;;13.72;11.00;;;15.60;90.40;;;;;;1879252;74;21106;-80
2021/03/02 11:31:08;;;;;;;13.62;11.40;;;15.60;89.80;;;;;;1880496;75;21097;-81
2021/03/02 11:33:35;;;;;;;13.78;10.63;;;15.30;88.70;;;;;;1875263;74;21610;-81
2021/03/02 11:36:03;;;;;;;12.50;10.55;;;15.50;89.90;;;;;;1876478;74;21137;-82
2021/03/02 11:38:30;;;;;;;16.15;10.70;;;15.70;88.00;;;;;;1876727;75;21058;-82
2021/03/02 11:40:59;;;;;;;14.53;9.98;;;16.00;87.80;;;;;;1876780;74;21116;-82
2021/03/02 11:43:28;;;;;;;13.58;9.58;;;16.30;86.60;;;;;;1874996;74;21119;-82
2021/03/02 11:45:56;;;;;;;11.80;9.55;;;16.60;86.20;;;;;;1877108;74;21218;-81
2021/03/02 11:48:24;;;;;;;11.18;9.98;;;16.70;85.30;;;;;;1877595;74;21212;-81
2021/03/02 11:50:51;;;;;;;10.70;9.45;;;17.00;84.60;;;;;;1879063;74;21097;-79
2021/03/02 11:53:19;;;;;;;11.48;9.08;;;17.30;82.50;;;;;;1879861;75;21155;-78
2021/03/02 11:55:46;;;;;;;12.03;9.68;;;17.50;82.80;;;;;;1880849;75;21102;-80
2021/03/02 11:58:14;;;;;;;12.53;9.65;;;17.80;82.10;;;;;;1878992;74;21582;-80
2021/03/02 12:00:42;;;;;;;12.15;9.28;;;18.10;80.20;;;;;;1873982;74;21148;-80
2021/03/02 12:03:09;;;;;;;15.13;9.83;;;18.40;78.70;;;;;;1880090;74;21137;-79
2021/03/02 12:05:37;;;;;;;13.32;8.33;;;18.70;78.50;;;;;;1874092;74;21136;-75
2021/03/02 12:08:04;;;;;;;10.58;8.65;;;18.90;77.20;;;;;;1875211;74;21548;-76
2021/03/02 12:10:32;;;;;;;9.83;8.80;;;19.20;75.90;;;;;;1879995;74;21150;-76
2021/03/02 12:12:59;;;;;;;9.28;8.28;;;19.20;74.20;;;;;;1874574;74;21609;-77
2021/03/02 12:15:27;;;;;;;8.85;7.95;;;19.30;75.00;;;;;;1872808;74;21587;-77
2021/03/02 12:17:54;;;;;;;10.00;8.23;;;19.50;73.20;;;;;;1880271;74;21210;-77
2021/03/02 12:20:22;;;;;;;9.68;8.08;;;19.80;73.50;;;;;;1877838;74;21098;-77
2021/03/02 12:22:49;;;;;;;10.13;7.25;;;20.00;70.50;;;;;;1876380;74;21507;-75
2021/03/02 12:25:17;;;;;;;11.65;7.72;;;20.20;71.30;;;;;;1878228;74;21140;-76
2021/03/02 12:27:44;;;;;;;8.50;7.60;;;20.30;69.60;;;;;;1882040;74;21164;-77
2021/03/02 12:30:13;;;;;;;8.60;7.00;;;20.60;69.00;;;;;;1873319;74;21090;-77
2021/03/02 12:32:40;;;;;;;8.53;7.22;;;21.00;68.10;;;;;;1874702;74;21118;-78
2021/03/02 12:35:09;;;;;;;9.58;7.62;;;21.20;65.80;;;;;;1876359;74;21149;-75
2021/03/02 12:37:36;;;;;;;8.90;7.62;;;21.50;65.90;;;;;;1868807;74;21146;-76
2021/03/02 12:40:06;;;;;;;56.58;42.62;;;21.50;65.10;;;;;;1879329;74;21505;-77
2021/03/02 12:42:34;;;;;;;13.50;12.10;;;21.90;65.90;;;;;;1881720;74;21195;-76
2021/03/02 12:45:02;;;;;;;8.65;7.72;;;22.30;66.40;;;;;;1879680;74;21164;-77
2021/03/02 12:47:30;;;;;;;8.85;7.50;;;22.50;63.80;;;;;;1881812;74;21640;-77
2021/03/02 12:49:57;;;;;;;11.03;7.85;;;22.50;61.90;;;;;;1870086;74;21086;-76